• Join FlightAware (Why Join?)
  • Login
  • US Flag 
02:29PM EDT


 

Airport Tracker/Info


-or-


 

Live Flight TrackerFlight Track Log ✈ DAL268 ✈ 14-Apr-2013 ✈ KATL - KJFK

Flight Track Log - Related Links

Times and Time Zones

All times are in EDT time to prevent confusion due to time zone crossing. See the DAL268 flight status page for this flight to view local times or setup timezone preferences in your user account.

Time Position Orientation Groundspeed Altitude Reporting Facility
EDT Latitude Longitude Course Direction KTS MPH feet Rate Location/Type
06:38PM 33.6333 -84.4000 90° East 162 186 2,100  Level Atlanta TRACON
06:39PM 33.6333 -84.3333 90° East 215 247 4,100 1,920 Climbing Atlanta TRACON
06:40PM 33.6333 -84.2500 90° East 258 297 6,000 2,100 Climbing Atlanta TRACON
06:41PM 33.6333 -84.1667 90° East 290 334 8,400 2,220 Climbing Atlanta TRACON
06:41PM 33.6314 -84.1136 93° East 318 366 9,500 1,620 Climbing Atlanta Center
06:42PM 33.6356 -84.0014 87° East 333 383 11,000 1,740 Climbing Atlanta Center
06:43PM 33.6439 -83.8742 85° East 362 417 13,000 1,920 Climbing Atlanta Center
06:44PM 33.6519 -83.7319 86° East 373 429 14,900 1,860 Climbing Atlanta Center
06:45PM 33.6725 -83.5994 79° East 396 456 16,800 1,860 Climbing Atlanta Center
06:46PM 33.7242 -83.4794 63° Northeast 396 456 18,700 1,680 Climbing Atlanta Center
06:47PM 33.7756 -83.3517 64° Northeast 407 468 20,200 1,380 Climbing Atlanta Center
06:48PM 33.8269 -83.2261 64° Northeast 413 475 21,500 1,320 Climbing Atlanta Center
06:49PM 33.8783 -83.0931 65° Northeast 419 482 22,900 1,200 Climbing Atlanta Center
06:50PM 33.9336 -82.9597 63° Northeast 429 494 23,900 900 Climbing Atlanta Center
06:51PM 33.9864 -82.8186 66° East 442 509 24,800 960 Climbing Atlanta Center
06:52PM 34.0414 -82.6800 64° Northeast 452 520 25,900 900 Climbing Atlanta Center
06:53PM 34.1003 -82.5361 64° Northeast 463 533 26,600 540 Climbing Atlanta Center
06:54PM 34.1547 -82.4019 64° Northeast 468 539 27,000 180 Climbing Atlanta Center
06:55PM 34.2114 -82.2578 65° Northeast 468 539 27,000  Level Atlanta Center
06:56PM 34.2675 -82.1183 64° Northeast 468 539 27,000  Level Atlanta Center
06:57PM 34.3364 -81.9836 58° Northeast 468 539 27,000  Level Atlanta Center
06:58PM 34.4050 -81.8458 59° Northeast 468 539 27,000  Level Atlanta Center
06:59PM 34.4694 -81.7158 59° Northeast 468 539 27,000  Level Atlanta Center
07:00PM 34.5397 -81.5800 58° Northeast 468 539 27,000  Level Atlanta Center
07:01PM 34.6036 -81.4419 61° Northeast 468 539 27,000  Level Atlanta Center
07:02PM 34.6778 -81.2958 58° Northeast 473 544 27,000  Level Atlanta Center
07:03PM 34.7456 -81.1594 59° Northeast 467 537 27,000  Level Atlanta Center
07:04PM 34.8111 -81.0206 60° Northeast 473 544 27,000  Level Atlanta Center
07:05PM 34.8806 -80.8814 59° Northeast 471 542 27,000  Level Atlanta Center
07:06PM 34.9478 -80.7419 60° Northeast 477 549 27,000  Level Atlanta Center
07:07PM 35.0169 -80.5997 59° Northeast 482 555 27,000  Level Atlanta Center
07:10PM 35.1736 -80.2700 60° Northeast 465 535 27,000  Level Washington Center
07:11PM 35.2417 -80.1314 59° Northeast 465 535 27,000  Level Washington Center
07:12PM 35.3069 -79.9978 59° Northeast 465 535 27,000  Level Washington Center
07:13PM 35.3706 -79.8586 61° Northeast 465 535 27,000  Level Washington Center
07:14PM 35.4358 -79.7219 60° Northeast 460 529 27,000  Level Washington Center
07:15PM 35.5031 -79.5850 59° Northeast 460 529 27,000  Level Washington Center
07:16PM 35.5661 -79.4453 61° Northeast 460 529 27,000  Level Washington Center
07:17PM 35.6311 -79.3078 60° Northeast 465 535 27,000  Level Washington Center
07:18PM 35.6978 -79.1675 60° Northeast 465 535 27,000  Level Washington Center
07:19PM 35.7625 -79.0272 60° Northeast 465 535 27,000  Level Washington Center
07:20PM 35.8269 -78.8864 61° Northeast 465 535 27,000  Level Washington Center
07:21PM 35.8789 -78.7375 67° East 465 535 27,000  Level Washington Center
07:22PM 35.8956 -78.5792 83° East 455 524 27,000  Level Washington Center
07:23PM 35.9100 -78.4181 84° East 466 536 27,000  Level Washington Center
07:24PM 35.9261 -78.2572 83° East 471 542 27,000  Level Washington Center
07:25PM 35.9400 -78.0983 84° East 471 542 27,000  Level Washington Center
07:26PM 35.9558 -77.9400 83° East 465 535 27,000  Level Washington Center
07:27PM 35.9692 -77.7811 84° East 465 535 27,000  Level Washington Center
07:28PM 36.0197 -77.6361 67° East 456 525 27,000  Level Washington Center
07:29PM 36.0992 -77.5072 53° Northeast 450 518 27,000  Level Washington Center
07:30PM 36.1742 -77.3778 54° Northeast 450 518 27,000  Level Washington Center
07:31PM 36.2467 -77.2636 52° Northeast 456 525 27,000  Level Washington Center
07:32PM 36.3253 -77.1544 48° Northeast 467 537 27,000  Level Washington Center
07:33PM 36.4417 -77.0353 39° Northeast 451 519 27,000  Level Washington Center
07:34PM 36.5428 -76.9389 37° Northeast 456 525 27,000  Level Washington Center
07:35PM 36.6461 -76.8422 37° Northeast 456 525 27,000  Level Washington Center
07:36PM 36.7472 -76.7456 37° Northeast 462 532 27,000  Level Washington Center
07:37PM 36.8483 -76.6458 38° Northeast 462 532 27,000  Level Washington Center
07:38PM 36.9492 -76.5508 37° Northeast 462 532 27,000  Level Washington Center
07:39PM 37.0500 -76.4506 38° Northeast 462 532 27,000  Level Washington Center
07:40PM 37.1508 -76.3528 38° Northeast 462 532 27,000  Level Washington Center
07:41PM 37.2411 -76.2622 39° Northeast 469 540 27,000  Level Washington Center
07:42PM 37.3397 -76.1667 38° Northeast 464 534 27,000  Level Washington Center
07:43PM 37.4422 -76.0758 35° Northeast 459 528 27,000  Level Washington Center
07:44PM 37.5428 -75.9742 39° Northeast 459 528 27,000  Level Washington Center
07:45PM 37.6389 -75.8856 36° Northeast 447 514 27,000  Level Washington Center
07:46PM 37.7392 -75.7889 37° Northeast 447 514 27,000  Level Washington Center
07:47PM 37.8372 -75.6864 40° Northeast 442 509 27,000  Level Washington Center
07:48PM 37.9417 -75.5839 38° Northeast 452 520 27,000 -60 Level Washington Center
07:49PM 38.0583 -75.4731 37° Northeast 471 542 26,900  Descending Washington Center
07:50PM 38.1667 -75.3989 28° Northeast 477 549 27,000  Climbing Washington Center
07:51PM 38.2875 -75.3325 23° Northeast 470 541 27,000 -420 Level Washington Center
07:52PM 38.4144 -75.2392 30° Northeast 470 541 26,200 -1,020 Descending Washington Center
07:53PM 38.5311 -75.1669 26° Northeast 465 535 25,000 -600 Descending Washington Center
07:54PM 38.6433 -75.0972 26° Northeast 454 522 25,000  Level Washington Center
07:55PM 38.7575 -75.0247 26° Northeast 449 517 25,000  Level Washington Center
07:56PM 38.8656 -74.9464 29° Northeast 444 511 25,000  Level Washington Center
07:57PM 38.9672 -74.8547 35° Northeast 444 511 25,000  Level Washington Center
07:58PM 39.0708 -74.7522 38° Northeast 453 521 25,000  Level Washington Center
07:59PM 39.1742 -74.6572 35° Northeast 458 527 25,000 -480 Level Washington Center
08:00PM 39.2778 -74.5594 36° Northeast 458 527 24,100 -1,440 Descending Washington Center
08:00PM 39.3544 -74.4894 35° Northeast 455 524 22,500 -2,220 Descending New York Center
08:01PM 39.4492 -74.3978 37° Northeast 459 528 20,300 -2,220 Descending New York Center
08:02PM 39.5414 -74.3081 37° Northeast 432 497 18,100 -1,140 Descending New York Center
08:04PM 39.6339 -74.2186 37° Northeast 416 479 18,000 -600 Descending New York Center
08:05PM 39.7092 -74.1331 41° Northeast 402 463 16,900 -1,800 Descending New York Center
08:06PM 39.7997 -74.0322 41° Northeast 391 450 14,500 -2,220 Descending New York Center
08:06PM 39.8831 -73.9575 35° Northeast 379 436 12,600 -1,740 Descending New York Center
08:07PM 39.9639 -73.8936 31° Northeast 356 410 11,100 -960 Descending New York Center
08:08PM 40.0258 -73.8422 32° Northeast 315 362 10,700 -1,200 Descending New York Center
08:09PM 40.0975 -73.8100 19° North 276 318 8,800 -2,040 Descending New York Center
08:10PM 40.1333 -73.8000 12° North 251 289 7,900 -2,640 Descending New York TRACON
08:11PM 40.2000 -73.8167 349° North 254 292 5,200 -2,100 Descending New York TRACON
08:12PM 40.2667 -73.8333 349° North 262 302 3,800 -1,200 Descending New York TRACON
08:13PM 40.3500 -73.8333 360° North 255 293 2,900 -900 Descending New York TRACON
08:14PM 40.4167 -73.8333 360° North 247 284 2,000 -480 Descending New York TRACON
08:15PM 40.4833 -73.8167 11° North 209 241 2,000 -300 Level New York TRACON
08:16PM 40.5333 -73.8333 346° North 207 238 1,500 -480 Descending New York TRACON
08:17PM 40.5833 -73.8000 27° Northeast 167 192 1,100 -600 Descending New York TRACON
08:18PM 40.6167 -73.7833 21° North 136 157 300 3,780 Descending New York TRACON
08:19PM 40.6700 -73.7478 27° Northeast 152 175 11,000 4,080 Climbing New York Center
08:20PM 40.7081 -73.7222 27° Northeast 152 175 11,000  Level New York Center